Time;durP1;ratioP1;P1;durP2;ratioP2;P2;SDS_P1;SDS_P2;PMS_P1;PMS_P2;Temp;Humidity;BMP_temperature;BMP_pressure;BME280_temperature;BME280_humidity;BME280_pressure;Samples;Min_cycle;Max_cycle;Signal;HPM_P1;HPM_P2
2023/02/06 00:00:48;;;;;;;18.27;2.55;;;3.10;99.90;;;;;;5005139;28;20087;-79
2023/02/06 00:03:14;;;;;;;16.00;1.23;;;3.00;99.90;;;;;;5012259;28;20057;-78
2023/02/06 00:05:39;;;;;;;14.55;1.50;;;3.00;99.90;;;;;;5029534;28;20026;-79
2023/02/06 00:08:06;;;;;;;17.88;1.50;;;2.90;99.90;;;;;;5031091;28;20391;-78
2023/02/06 00:10:32;;;;;;;14.27;1.25;;;2.90;99.90;;;;;;5017045;28;20041;-79
2023/02/06 00:12:58;;;;;;;18.90;2.05;;;2.80;99.90;;;;;;5016501;28;20053;-78
2023/02/06 00:15:24;;;;;;;22.27;1.55;;;2.90;99.90;;;;;;5002828;28;20127;-78
2023/02/06 00:17:49;;;;;;;17.77;1.55;;;2.90;99.90;;;;;;5016937;28;20556;-77
2023/02/06 00:20:15;;;;;;;8.07;1.05;;;2.70;99.90;;;;;;5029860;28;20037;-78
2023/02/06 00:22:41;;;;;;;10.65;1.00;;;2.70;99.90;;;;;;4998222;28;20044;-78
2023/02/06 00:25:07;;;;;;;11.68;1.05;;;2.70;99.90;;;;;;5030014;28;20108;-78
2023/02/06 00:27:33;;;;;;;6.95;0.45;;;2.60;99.90;;;;;;5003656;28;20049;-79
2023/02/06 00:29:59;;;;;;;11.00;0.88;;;2.60;99.90;;;;;;4995576;28;20077;-77
2023/02/06 00:32:25;;;;;;;16.00;1.30;;;2.70;99.90;;;;;;5009304;28;20489;-77
2023/02/06 00:34:50;;;;;;;16.38;0.80;;;2.70;99.90;;;;;;5007588;28;20425;-80
2023/02/06 00:37:16;;;;;;;17.05;1.70;;;2.60;99.90;;;;;;4998728;28;20036;-78
2023/02/06 00:39:42;;;;;;;22.38;1.65;;;2.60;99.90;;;;;;5017560;28;20508;-78
2023/02/06 00:42:08;;;;;;;19.10;1.75;;;2.60;99.90;;;;;;5015689;28;20076;-77
2023/02/06 00:44:34;;;;;;;12.23;0.82;;;2.60;99.90;;;;;;5010096;28;20036;-78
2023/02/06 00:47:00;;;;;;;13.15;0.70;;;2.50;99.90;;;;;;5020998;28;20101;-77
2023/02/06 00:49:26;;;;;;;19.48;1.00;;;2.50;99.90;;;;;;5032002;28;20485;-77
2023/02/06 00:51:52;;;;;;;13.63;1.02;;;2.60;99.90;;;;;;5044671;28;20100;-78
2023/02/06 00:54:19;;;;;;;11.07;0.90;;;2.60;99.90;;;;;;5023209;28;20632;-77
2023/02/06 00:56:46;;;;;;;10.20;0.82;;;2.50;99.90;;;;;;5028837;28;20087;-77
2023/02/06 00:59:13;;;;;;;10.23;0.80;;;2.50;99.90;;;;;;5041890;28;20446;-77
2023/02/06 01:01:38;;;;;;;20.58;1.67;;;2.50;99.90;;;;;;5027885;28;20066;-78
2023/02/06 01:04:04;;;;;;;11.73;0.85;;;2.50;99.90;;;;;;5029506;28;20445;-77
2023/02/06 01:06:30;;;;;;;14.45;1.55;;;2.50;99.90;;;;;;5043513;28;20033;-79
2023/02/06 01:08:56;;;;;;;16.92;1.02;;;2.50;99.90;;;;;;5026359;28;20036;-76
2023/02/06 01:11:24;;;;;;;13.27;1.02;;;2.50;99.90;;;;;;5034843;28;20473;-77
2023/02/06 01:13:50;;;;;;;11.10;1.20;;;2.40;99.90;;;;;;5032611;28;20113;-77
2023/02/06 01:16:19;;;;;;;7.53;0.65;;;2.30;99.90;;;;;;5047928;28;20037;-77
2023/02/06 01:18:45;;;;;;;8.93;0.50;;;2.30;99.90;;;;;;5026767;28;20026;-78
2023/02/06 01:21:13;;;;;;;17.15;1.10;;;2.20;99.90;;;;;;5047441;28;20025;-76
2023/02/06 01:23:39;;;;;;;5.70;0.55;;;2.20;99.90;;;;;;5031400;28;20085;-78
2023/02/06 01:26:11;;;;;;;8.40;0.50;;;2.20;99.90;;;;;;5028766;28;20032;-79
2023/02/06 01:28:38;;;;;;;5.20;0.70;;;2.20;99.90;;;;;;5058410;28;20048;-76
2023/02/06 01:31:19;;;;;;;9.25;1.17;;;2.10;99.90;;;;;;5045846;28;20041;-77
2023/02/06 01:33:46;;;;;;;6.50;0.50;;;2.20;99.90;;;;;;5014838;28;20037;-77
2023/02/06 01:36:13;;;;;;;5.55;0.35;;;2.00;99.90;;;;;;5027523;28;20083;-76
2023/02/06 01:38:39;;;;;;;6.18;0.38;;;2.00;99.90;;;;;;5028446;28;20032;-76
2023/02/06 01:41:07;;;;;;;4.63;0.63;;;2.10;99.90;;;;;;5028752;28;20025;-78
2023/02/06 01:43:36;;;;;;;4.85;0.40;;;2.10;99.90;;;;;;5027522;28;20260;-77
2023/02/06 01:46:02;;;;;;;7.45;0.70;;;2.00;99.90;;;;;;5044676;28;20044;-78
2023/02/06 01:48:33;;;;;;;4.40;0.45;;;2.10;99.90;;;;;;5026948;28;20505;-78
2023/02/06 01:51:02;;;;;;;7.47;0.70;;;2.10;99.90;;;;;;5044742;28;20029;-77
2023/02/06 01:53:29;;;;;;;12.25;0.55;;;2.10;99.90;;;;;;5027495;28;20548;-77
2023/02/06 01:55:58;;;;;;;10.13;1.15;;;2.00;99.90;;;;;;5043960;28;20029;-77
2023/02/06 01:58:32;;;;;;;5.55;0.45;;;1.90;99.90;;;;;;5042300;28;20103;-77
2023/02/06 02:01:00;;;;;;;6.78;0.40;;;2.00;99.90;;;;;;5042257;28;20021;-77
2023/02/06 02:03:27;;;;;;;5.75;0.40;;;1.90;99.90;;;;;;5026932;28;20101;-77
2023/02/06 02:05:58;;;;;;;9.75;0.30;;;1.90;99.90;;;;;;5044909;28;20024;-77
2023/02/06 02:08:32;;;;;;;3.55;0.40;;;1.80;99.90;;;;;;5027169;28;20599;-77
2023/02/06 02:11:00;;;;;;;2.70;0.20;;;1.60;99.90;;;;;;5034545;28;20124;-78
2023/02/06 02:13:26;;;;;;;7.90;0.40;;;1.60;99.90;;;;;;5025240;28;20022;-77
2023/02/06 02:15:54;;;;;;;6.25;0.40;;;1.50;99.90;;;;;;5038567;28;20036;-77
2023/02/06 02:18:28;;;;;;;5.40;0.50;;;1.50;99.90;;;;;;5044998;28;20039;-78
2023/02/06 02:21:10;;;;;;;4.30;0.30;;;1.50;99.90;;;;;;5015170;28;20465;-80
2023/02/06 02:23:59;;;;;;;4.03;0.20;;;1.50;99.90;;;;;;5016035;28;20033;-79
2023/02/06 02:26:28;;;;;;;2.90;0.20;;;1.50;99.90;;;;;;4967875;28;20034;-79
2023/02/06 02:29:26;;;;;;;3.15;0.20;;;1.50;99.90;;;;;;5001119;28;20030;-76
2023/02/06 02:32:13;;;;;;;5.88;0.30;;;1.50;99.90;;;;;;5003116;28;20025;-78
2023/02/06 02:35:06;;;;;;;4.00;0.70;;;1.50;99.90;;;;;;4985112;28;20045;-78
2023/02/06 02:37:51;;;;;;;4.32;0.22;;;1.40;99.90;;;;;;5002159;28;20038;-79
2023/02/06 02:40:32;;;;;;;4.85;0.20;;;1.50;99.90;;;;;;4974131;28;20121;-79
2023/02/06 02:43:13;;;;;;;6.32;0.75;;;1.50;99.90;;;;;;5002477;28;20192;-76
2023/02/06 02:45:54;;;;;;;2.78;0.20;;;1.50;99.90;;;;;;5004229;28;20177;-78
2023/02/06 02:48:32;;;;;;;5.78;0.35;;;1.50;99.90;;;;;;5002552;28;20095;-81
2023/02/06 02:50:58;;;;;;;9.32;0.45;;;1.50;99.90;;;;;;5002024;28;20406;-79
2023/02/06 02:53:26;;;;;;;3.58;0.20;;;1.60;99.90;;;;;;5001991;28;20110;-80
2023/02/06 02:55:52;;;;;;;4.47;0.20;;;1.50;99.90;;;;;;4995497;28;20027;-79
2023/02/06 02:58:24;;;;;;;3.97;0.30;;;1.60;99.90;;;;;;4984459;28;20644;-79
2023/02/06 03:00:56;;;;;;;2.97;0.20;;;1.60;99.90;;;;;;4953162;28;20402;-79
2023/02/06 03:03:27;;;;;;;5.22;0.30;;;1.50;99.90;;;;;;5020363;28;20484;-80
2023/02/06 03:06:31;;;;;;;4.18;0.22;;;1.50;99.90;;;;;;5033330;28;20025;-79
2023/02/06 03:09:20;;;;;;;5.60;0.40;;;1.60;99.90;;;;;;5041310;28;20033;-79
2023/02/06 03:12:11;;;;;;;3.47;0.20;;;1.60;99.90;;;;;;5028336;28;20033;-78
2023/02/06 03:14:48;;;;;;;6.45;0.30;;;1.70;99.90;;;;;;5025209;28;20548;-78
2023/02/06 03:17:21;;;;;;;4.63;0.25;;;1.70;99.90;;;;;;5031212;28;20655;-78
2023/02/06 03:19:51;;;;;;;3.17;0.20;;;1.60;99.90;;;;;;5044323;28;20064;-79
2023/02/06 03:22:17;;;;;;;;;;;1.50;99.90;;;;;;5011647;28;20047;-78
2023/02/06 03:24:43;;;;;;;1.80;0.30;;;1.60;99.90;;;;;;5027138;28;20394;-79
2023/02/06 03:27:14;;;;;;;4.65;0.20;;;1.60;99.90;;;;;;5044338;28;20033;-78
2023/02/06 03:29:42;;;;;;;2.40;0.20;;;1.70;99.90;;;;;;5041720;28;20120;-78
2023/02/06 03:32:15;;;;;;;4.03;0.30;;;1.70;99.90;;;;;;5040439;28;20112;-78
2023/02/06 03:34:46;;;;;;;4.85;0.25;;;1.70;99.90;;;;;;5025930;28;20113;-78
2023/02/06 03:37:12;;;;;;;3.28;0.22;;;1.60;99.90;;;;;;5027107;28;20366;-78
2023/02/06 03:39:39;;;;;;;6.15;0.70;;;1.60;99.90;;;;;;5032706;28;20052;-79
2023/02/06 03:42:06;;;;;;;2.58;0.20;;;1.60;99.90;;;;;;5044504;28;20029;-79
2023/02/06 03:44:41;;;;;;;4.53;0.30;;;1.60;99.90;;;;;;5044131;28;20067;-79
2023/02/06 03:47:09;;;;;;;2.88;0.28;;;1.50;99.90;;;;;;5028415;28;20078;-78
2023/02/06 03:49:38;;;;;;;4.15;0.20;;;1.60;99.90;;;;;;5040261;28;20037;-78
2023/02/06 03:52:17;;;;;;;2.22;0.20;;;1.50;99.90;;;;;;5040526;28;20123;-78
2023/02/06 03:54:50;;;;;;;5.38;0.55;;;1.50;99.90;;;;;;5056264;28;20021;-78
2023/02/06 03:57:18;;;;;;;3.97;0.20;;;1.50;99.90;;;;;;5040980;28;20025;-78
2023/02/06 03:59:47;;;;;;;2.97;0.25;;;1.40;99.90;;;;;;5046946;28;20388;-79
2023/02/06 04:02:15;;;;;;;3.67;0.30;;;1.40;99.90;;;;;;5030318;28;20120;-78
2023/02/06 04:04:43;;;;;;;3.75;0.40;;;1.20;99.90;;;;;;5025993;28;20029;-79
2023/02/06 04:07:22;;;;;;;3.42;0.35;;;1.30;99.90;;;;;;5045787;28;20030;-78
2023/02/06 04:09:48;;;;;;;4.78;0.47;;;1.20;99.90;;;;;;5030513;28;20554;-78
2023/02/06 04:12:14;;;;;;;2.20;0.10;;;1.20;99.90;;;;;;5041780;28;20065;-78
2023/02/06 04:14:43;;;;;;;5.35;0.20;;;1.20;99.90;;;;;;5031476;28;20721;-80
2023/02/06 04:17:10;;;;;;;4.72;0.25;;;1.10;99.90;;;;;;5025239;28;20421;-80
2023/02/06 04:19:36;;;;;;;4.50;0.20;;;1.00;99.90;;;;;;5041898;28;20083;-80
2023/02/06 04:22:02;;;;;;;3.80;0.22;;;1.00;99.90;;;;;;5034806;28;20417;-81
2023/02/06 04:24:28;;;;;;;4.07;0.30;;;1.00;99.90;;;;;;5042003;28;20029;-79
2023/02/06 04:26:54;;;;;;;4.97;0.20;;;0.90;99.90;;;;;;5023899;28;20495;-79
2023/02/06 04:29:20;;;;;;;4.53;0.30;;;0.90;99.90;;;;;;5042159;28;20485;-80
2023/02/06 04:31:46;;;;;;;3.22;0.20;;;0.80;99.90;;;;;;5042374;28;20385;-81
2023/02/06 04:34:11;;;;;;;4.05;0.35;;;0.80;99.90;;;;;;5042126;28;20021;-81
2023/02/06 04:36:37;;;;;;;4.72;0.70;;;0.80;99.90;;;;;;5044771;28;20025;-80
2023/02/06 04:39:04;;;;;;;4.70;0.38;;;0.70;99.90;;;;;;5042424;28;20017;-81
2023/02/06 04:41:30;;;;;;;6.85;0.28;;;0.60;99.90;;;;;;5031494;28;20028;-80
2023/02/06 04:43:56;;;;;;;3.55;0.40;;;0.60;99.90;;;;;;5025597;28;20068;-81
2023/02/06 04:46:21;;;;;;;2.90;0.47;;;0.50;99.90;;;;;;5039437;28;20485;-84
2023/02/06 04:48:47;;;;;;;3.80;0.30;;;0.50;99.90;;;;;;5021391;28;20045;-78
2023/02/06 04:51:13;;;;;;;3.38;0.35;;;0.50;99.90;;;;;;5024465;28;20037;-85
2023/02/06 04:53:39;;;;;;;5.32;0.28;;;0.50;99.90;;;;;;5029500;28;20108;-80
2023/02/06 04:56:09;;;;;;;2.00;0.20;;;0.40;99.90;;;;;;5046369;28;20025;-80
2023/02/06 04:58:35;;;;;;;4.85;0.20;;;0.40;99.90;;;;;;5034664;28;20049;-79
2023/02/06 05:01:01;;;;;;;3.22;0.30;;;0.40;99.90;;;;;;5044719;28;20040;-78
2023/02/06 05:03:28;;;;;;;2.75;0.20;;;0.40;99.90;;;;;;5043992;28;20134;-80
2023/02/06 05:05:55;;;;;;;2.58;0.22;;;0.30;99.90;;;;;;5048645;28;20554;-78
2023/02/06 05:08:21;;;;;;;4.72;0.65;;;0.30;99.90;;;;;;5045954;28;20025;-78
2023/02/06 05:10:47;;;;;;;4.88;0.30;;;0.30;99.90;;;;;;5045904;28;20474;-78
2023/02/06 05:13:13;;;;;;;3.42;0.20;;;0.30;99.90;;;;;;5044176;28;20025;-79
2023/02/06 05:15:38;;;;;;;3.03;0.25;;;0.30;99.90;;;;;;5036172;28;20079;-79
2023/02/06 05:18:04;;;;;;;2.85;0.35;;;0.20;99.90;;;;;;5028764;28;20056;-77
2023/02/06 05:20:30;;;;;;;3.58;0.20;;;0.10;99.90;;;;;;5026470;28;20359;-80
2023/02/06 05:22:56;;;;;;;3.92;0.30;;;0.00;99.90;;;;;;5028481;28;20054;-79
2023/02/06 05:25:23;;;;;;;5.43;0.40;;;0.00;99.90;;;;;;5059810;28;20122;-80
2023/02/06 05:27:50;;;;;;;3.88;0.73;;;0.10;99.90;;;;;;5028417;28;20025;-78
2023/02/06 05:30:16;;;;;;;1.50;0.22;;;0.10;99.90;;;;;;5027207;28;20448;-78
2023/02/06 05:32:42;;;;;;;2.75;0.20;;;0.00;99.90;;;;;;5045803;28;20040;-77
2023/02/06 05:35:08;;;;;;;2.65;0.20;;;-0.10;99.90;;;;;;5032870;28;20025;-79
2023/02/06 05:37:33;;;;;;;2.78;0.30;;;0.00;99.90;;;;;;5028521;28;20045;-78
2023/02/06 05:39:59;;;;;;;4.03;0.20;;;0.10;99.90;;;;;;5014947;28;20485;-77
2023/02/06 05:42:24;;;;;;;2.85;0.20;;;0.00;99.90;;;;;;5047095;28;20036;-81
2023/02/06 05:44:50;;;;;;;2.92;0.20;;;0.00;99.90;;;;;;5061404;28;20028;-78
2023/02/06 05:47:16;;;;;;;4.65;0.28;;;0.10;99.90;;;;;;5027404;28;20025;-78
2023/02/06 05:49:42;;;;;;;1.75;0.20;;;0.10;99.90;;;;;;5027344;28;20092;-77
2023/02/06 05:52:10;;;;;;;3.70;0.22;;;0.10;99.90;;;;;;5025505;28;20032;-78
2023/02/06 05:54:35;;;;;;;4.97;0.30;;;0.10;99.90;;;;;;5044745;28;20033;-78
2023/02/06 05:57:02;;;;;;;2.15;0.20;;;0.10;99.90;;;;;;5026434;28;20098;-78
2023/02/06 05:59:28;;;;;;;2.08;0.20;;;0.10;99.90;;;;;;5046327;28;20305;-78
2023/02/06 06:01:53;;;;;;;2.30;0.20;;;0.20;99.90;;;;;;5045239;28;20739;-79
2023/02/06 06:04:19;;;;;;;4.40;0.30;;;0.10;99.90;;;;;;5044010;28;20036;-79
2023/02/06 06:06:45;;;;;;;2.38;0.20;;;0.10;99.90;;;;;;5042366;28;20552;-78
2023/02/06 06:09:11;;;;;;;7.82;0.40;;;0.20;99.90;;;;;;5048023;28;20033;-79
2023/02/06 06:11:36;;;;;;;3.92;0.30;;;0.10;99.90;;;;;;5041977;28;20025;-78
2023/02/06 06:14:03;;;;;;;3.30;0.30;;;0.10;99.90;;;;;;5023244;28;20373;-78
2023/02/06 06:16:29;;;;;;;2.72;0.40;;;0.00;99.90;;;;;;5043428;28;20041;-78
2023/02/06 06:18:54;;;;;;;4.22;0.45;;;0.00;99.90;;;;;;5040072;28;20108;-78
2023/02/06 06:21:21;;;;;;;2.17;0.30;;;0.00;99.90;;;;;;5041566;28;20473;-78
2023/02/06 06:23:46;;;;;;;4.45;0.40;;;0.10;99.90;;;;;;5022975;28;20033;-77
2023/02/06 06:26:12;;;;;;;4.13;0.40;;;0.10;99.90;;;;;;5026134;28;20028;-78
2023/02/06 06:28:38;;;;;;;5.00;0.50;;;0.20;99.90;;;;;;5041783;28;20087;-82
2023/02/06 06:31:07;;;;;;;5.68;0.30;;;0.20;99.90;;;;;;5028579;28;20197;-81
2023/02/06 06:33:33;;;;;;;5.43;0.30;;;0.20;99.90;;;;;;5015859;28;20045;-78
2023/02/06 06:35:58;;;;;;;5.30;0.50;;;0.10;99.90;;;;;;5044325;28;20116;-76
2023/02/06 06:38:24;;;;;;;4.47;0.30;;;0.30;99.90;;;;;;5042136;28;20116;-77
2023/02/06 06:40:51;;;;;;;4.82;0.30;;;0.20;99.90;;;;;;5026165;28;20029;-77
2023/02/06 06:43:17;;;;;;;1.75;0.20;;;0.30;99.90;;;;;;5026811;28;20111;-77
2023/02/06 06:45:43;;;;;;;3.28;0.30;;;0.40;99.90;;;;;;5043174;28;20116;-76
2023/02/06 06:48:08;;;;;;;3.72;0.30;;;0.40;99.90;;;;;;5030248;28;20040;-77
2023/02/06 06:50:34;;;;;;;5.60;0.40;;;0.30;99.90;;;;;;5042332;28;20060;-78
2023/02/06 06:53:00;;;;;;;3.38;0.38;;;0.30;99.90;;;;;;5013911;28;20398;-79
2023/02/06 06:55:26;;;;;;;2.72;0.20;;;0.30;99.90;;;;;;5044987;28;20108;-78
2023/02/06 06:57:52;;;;;;;4.45;0.30;;;0.40;99.90;;;;;;5031868;28;20170;-78
2023/02/06 07:00:18;;;;;;;1.55;0.20;;;0.50;99.90;;;;;;5026578;28;20485;-78
2023/02/06 07:02:44;;;;;;;3.97;0.30;;;0.50;99.90;;;;;;5045439;28;20025;-81
2023/02/06 07:05:10;;;;;;;2.38;0.20;;;0.50;99.90;;;;;;5044081;28;20118;-80
2023/02/06 07:07:37;;;;;;;2.38;0.25;;;0.50;99.90;;;;;;5042463;28;20029;-79
2023/02/06 07:10:04;;;;;;;4.45;0.25;;;0.50;99.90;;;;;;5026439;28;20033;-77
2023/02/06 07:12:29;;;;;;;3.47;0.20;;;0.60;99.90;;;;;;5045981;28;20057;-79
2023/02/06 07:14:55;;;;;;;2.92;0.20;;;0.70;99.90;;;;;;5039930;28;20087;-77
2023/02/06 07:17:20;;;;;;;3.35;0.20;;;0.80;99.90;;;;;;5023543;28;20109;-78
2023/02/06 07:19:48;;;;;;;1.00;0.20;;;0.80;99.90;;;;;;5043343;28;20496;-81
2023/02/06 07:22:14;;;;;;;2.38;0.20;;;0.70;99.90;;;;;;5025480;28;20074;-80
2023/02/06 07:24:40;;;;;;;6.45;0.20;;;0.70;99.90;;;;;;5041617;28;20116;-78
2023/02/06 07:27:06;;;;;;;1.73;0.20;;;0.80;99.90;;;;;;5057332;28;20092;-77
2023/02/06 07:29:32;;;;;;;1.60;0.25;;;0.90;99.90;;;;;;5010146;28;20034;-78
2023/02/06 07:31:58;;;;;;;3.42;0.20;;;0.80;99.90;;;;;;5038853;28;20469;-78
2023/02/06 07:34:24;;;;;;;2.58;0.20;;;0.90;99.90;;;;;;5040851;28;20060;-80
2023/02/06 07:36:50;;;;;;;1.85;0.20;;;0.90;99.90;;;;;;5026207;28;20029;-79
2023/02/06 07:39:15;;;;;;;1.95;0.20;;;0.90;99.90;;;;;;5037725;28;20028;-81
2023/02/06 07:41:41;;;;;;;2.13;0.20;;;0.90;99.90;;;;;;5043971;28;20025;-77
2023/02/06 07:44:09;;;;;;;1.00;0.10;;;1.00;99.90;;;;;;5024123;28;20389;-80
2023/02/06 07:46:35;;;;;;;2.63;0.20;;;1.10;99.90;;;;;;5042613;28;20033;-81
2023/02/06 07:49:01;;;;;;;6.00;0.47;;;1.20;99.90;;;;;;5026247;28;20041;-81
2023/02/06 07:51:27;;;;;;;5.00;0.20;;;1.30;99.90;;;;;;5014370;28;20048;-80
2023/02/06 07:53:53;;;;;;;1.92;0.25;;;1.20;99.90;;;;;;5024735;28;20023;-78
2023/02/06 07:56:22;;;;;;;2.03;0.20;;;1.30;99.90;;;;;;5024354;28;20396;-79
2023/02/06 07:58:54;;;;;;;2.78;0.10;;;1.30;99.90;;;;;;5037769;28;20026;-78
2023/02/06 08:01:21;;;;;;;1.55;0.20;;;1.20;99.90;;;;;;5041246;28;20121;-77
2023/02/06 08:03:51;;;;;;;2.30;0.20;;;1.10;99.90;;;;;;5041188;28;20029;-81
2023/02/06 08:06:17;;;;;;;4.03;0.50;;;1.20;99.90;;;;;;5057236;28;20572;-78
2023/02/06 08:08:43;;;;;;;1.65;0.20;;;1.40;99.90;;;;;;5019941;28;20072;-78
2023/02/06 08:11:17;;;;;;;2.85;0.20;;;1.60;99.90;;;;;;5044916;28;20079;-77
2023/02/06 08:13:43;;;;;;;2.05;0.20;;;1.50;99.90;;;;;;5012695;28;20028;-78
2023/02/06 08:16:16;;;;;;;2.00;0.13;;;1.50;99.90;;;;;;5023172;28;20108;-78
2023/02/06 08:18:42;;;;;;;2.03;0.17;;;1.40;99.90;;;;;;5048390;28;20052;-79
2023/02/06 08:21:22;;;;;;;3.13;0.20;;;1.60;99.90;;;;;;5023613;28;20349;-78
2023/02/06 08:23:57;;;;;;;1.77;0.13;;;1.70;99.90;;;;;;5040592;28;20033;-77
2023/02/06 08:26:23;;;;;;;1.35;0.20;;;2.00;99.90;;;;;;5031519;28;20029;-80
2023/02/06 08:28:50;;;;;;;5.05;1.15;;;2.00;99.90;;;;;;5027459;28;20127;-79
2023/02/06 08:31:27;;;;;;;1.02;0.10;;;2.10;99.90;;;;;;5041446;28;20056;-77
2023/02/06 08:33:53;;;;;;;2.53;0.22;;;2.20;99.90;;;;;;5035078;28;20021;-77
2023/02/06 08:36:21;;;;;;;2.28;0.30;;;2.20;99.90;;;;;;5022347;28;20123;-79
2023/02/06 08:38:47;;;;;;;6.30;0.30;;;2.20;99.90;;;;;;5044780;28;20021;-76
2023/02/06 08:41:19;;;;;;;2.95;0.30;;;2.40;99.90;;;;;;5045499;28;20029;-78
2023/02/06 08:43:46;;;;;;;3.13;0.20;;;2.40;99.90;;;;;;5028159;28;20025;-76
2023/02/06 08:46:13;;;;;;;2.13;0.22;;;2.40;99.90;;;;;;5025779;28;20021;-77
2023/02/06 08:48:39;;;;;;;4.43;0.20;;;2.60;99.90;;;;;;5026240;28;20057;-77
2023/02/06 08:51:06;;;;;;;2.75;0.30;;;2.70;99.90;;;;;;5016720;28;20052;-78
2023/02/06 08:53:32;;;;;;;1.88;0.20;;;2.70;99.90;;;;;;5046404;28;20381;-76
2023/02/06 08:56:03;;;;;;;2.40;0.30;;;2.70;99.90;;;;;;5032176;28;20361;-77
2023/02/06 08:58:29;;;;;;;3.35;0.30;;;2.80;99.90;;;;;;5032358;28;20525;-77
2023/02/06 09:00:55;;;;;;;5.40;0.30;;;2.90;99.90;;;;;;5026998;28;20032;-79
2023/02/06 09:03:21;;;;;;;4.15;0.60;;;2.90;99.90;;;;;;5043292;28;20490;-76
2023/02/06 09:05:48;;;;;;;2.90;0.30;;;3.00;99.90;;;;;;5044396;28;20040;-76
2023/02/06 09:08:14;;;;;;;3.30;0.38;;;3.20;99.90;;;;;;5025121;28;20048;-78
2023/02/06 09:10:40;;;;;;;7.40;0.50;;;3.20;99.90;;;;;;5047239;28;20094;-77
2023/02/06 09:13:06;;;;;;;3.65;0.32;;;3.20;99.90;;;;;;5032452;28;20033;-76
2023/02/06 09:15:32;;;;;;;4.68;0.50;;;3.30;99.90;;;;;;5039638;28;20029;-77
2023/02/06 09:17:57;;;;;;;5.43;0.40;;;3.30;99.90;;;;;;5058675;28;20025;-76
2023/02/06 09:20:25;;;;;;;7.15;0.63;;;3.40;99.90;;;;;;5028282;28;20044;-76
2023/02/06 09:22:52;;;;;;;2.30;0.30;;;3.40;99.90;;;;;;5023362;28;20025;-77
2023/02/06 09:25:18;;;;;;;3.67;0.75;;;3.50;99.90;;;;;;5047475;28;20044;-77
2023/02/06 09:27:45;;;;;;;6.07;1.10;;;3.50;99.90;;;;;;5043733;28;20021;-77
2023/02/06 09:30:13;;;;;;;7.47;0.90;;;3.60;99.90;;;;;;5043204;28;20037;-76
2023/02/06 09:32:39;;;;;;;5.20;0.60;;;3.70;99.90;;;;;;5029950;28;20029;-77
2023/02/06 09:35:05;;;;;;;6.78;0.52;;;3.80;99.90;;;;;;5042569;28;20032;-76
2023/02/06 09:37:31;;;;;;;8.60;0.75;;;3.80;99.90;;;;;;5029280;28;20033;-77
2023/02/06 09:39:57;;;;;;;6.22;0.50;;;4.00;99.90;;;;;;5043104;28;20090;-76
2023/02/06 09:42:32;;;;;;;8.57;0.60;;;4.10;99.90;;;;;;5060524;28;20029;-76
2023/02/06 09:45:12;;;;;;;8.02;0.70;;;4.10;99.90;;;;;;5019017;28;20028;-77
2023/02/06 09:47:48;;;;;;;5.72;0.60;;;4.20;99.90;;;;;;5031649;28;20059;-76
2023/02/06 09:50:33;;;;;;;4.05;0.88;;;4.20;99.90;;;;;;5027232;28;20056;-76
2023/02/06 09:53:19;;;;;;;9.45;0.63;;;4.30;99.90;;;;;;5044939;28;20033;-76
2023/02/06 09:55:53;;;;;;;8.82;0.70;;;4.40;99.90;;;;;;5033271;28;20025;-78
2023/02/06 09:58:34;;;;;;;7.22;0.80;;;4.40;99.90;;;;;;4990619;28;20049;-77
2023/02/06 10:01:30;;;;;;;10.38;1.77;;;4.50;99.90;;;;;;5032197;28;20541;-77
2023/02/06 10:04:33;;;;;;;9.82;0.50;;;4.60;99.90;;;;;;5034214;28;20555;-77
2023/02/06 10:07:14;;;;;;;5.90;0.50;;;4.60;99.90;;;;;;5042606;28;20024;-77
2023/02/06 10:09:51;;;;;;;6.45;1.00;;;4.80;99.90;;;;;;5030348;28;20037;-77
2023/02/06 10:12:43;;;;;;;5.03;0.60;;;4.80;99.90;;;;;;5032874;28;20477;-76
2023/02/06 10:15:14;;;;;;;8.80;0.68;;;4.90;99.90;;;;;;5042142;28;20021;-76
2023/02/06 10:17:50;;;;;;;6.93;0.40;;;5.10;99.90;;;;;;5015915;28;20037;-76
2023/02/06 10:20:28;;;;;;;14.85;0.98;;;5.30;99.90;;;;;;5026786;28;20068;-76
2023/02/06 10:23:12;;;;;;;9.65;0.70;;;5.50;99.90;;;;;;5042879;28;20029;-77
2023/02/06 10:25:43;;;;;;;10.00;1.33;;;5.60;99.90;;;;;;5043290;28;20025;-77
2023/02/06 10:28:28;;;;;;;11.02;1.00;;;5.80;99.90;;;;;;5042634;28;20033;-78
2023/02/06 10:31:27;;;;;;;6.97;0.52;;;5.90;99.90;;;;;;5049956;28;20037;-76
2023/02/06 10:34:05;;;;;;;9.38;0.55;;;6.10;99.90;;;;;;5042797;28;20052;-76
2023/02/06 10:36:52;;;;;;;7.53;0.50;;;6.30;99.90;;;;;;5035554;28;20400;-76
2023/02/06 10:39:27;;;;;;;13.93;0.85;;;6.40;99.90;;;;;;5035359;28;20021;-76
2023/02/06 10:42:11;;;;;;;12.95;0.82;;;6.30;99.90;;;;;;5034839;28;20488;-76
2023/02/06 10:44:47;;;;;;;11.90;0.50;;;6.50;99.90;;;;;;5014572;28;20113;-76
2023/02/06 10:47:36;;;;;;;9.27;0.60;;;6.70;99.90;;;;;;5014741;28;20082;-76
2023/02/06 10:50:19;;;;;;;9.35;0.40;;;6.90;99.90;;;;;;5033005;28;20099;-77
2023/02/06 10:52:46;;;;;;;7.47;0.80;;;7.10;99.90;;;;;;5043895;28;20025;-76
2023/02/06 10:55:23;;;;;;;9.50;0.70;;;7.00;99.90;;;;;;5044001;28;20569;-78
2023/02/06 10:58:06;;;;;;;8.85;0.60;;;7.10;99.90;;;;;;5044665;28;20729;-77
2023/02/06 11:00:32;;;;;;;14.50;1.02;;;7.30;99.90;;;;;;5041155;28;20032;-79
2023/02/06 11:03:00;;;;;;;13.43;0.80;;;7.00;99.90;;;;;;5025804;28;20058;-78
2023/02/06 11:05:28;;;;;;;7.80;0.50;;;7.00;99.90;;;;;;5043149;28;20021;-77
2023/02/06 11:08:22;;;;;;;6.57;0.45;;;7.30;99.90;;;;;;5025677;28;20032;-77
2023/02/06 11:10:47;;;;;;;7.78;0.68;;;7.50;99.90;;;;;;5037712;28;20493;-77
2023/02/06 11:13:29;;;;;;;9.25;0.50;;;7.60;99.90;;;;;;5040513;28;20024;-78
2023/02/06 11:16:08;;;;;;;7.15;0.40;;;7.50;99.90;;;;;;5039150;28;20033;-77
2023/02/06 11:18:45;;;;;;;8.60;0.50;;;7.40;99.90;;;;;;5052008;28;20033;-77
2023/02/06 11:21:12;;;;;;;11.75;0.60;;;7.40;99.90;;;;;;5039157;28;20497;-77
2023/02/06 11:23:39;;;;;;;10.05;0.75;;;7.40;99.90;;;;;;5044267;28;20029;-78
2023/02/06 11:26:18;;;;;;;10.48;0.52;;;7.50;99.90;;;;;;5016631;28;20055;-77
2023/02/06 11:28:55;;;;;;;7.97;0.40;;;7.40;99.90;;;;;;5058851;28;20033;-78
2023/02/06 11:31:40;;;;;;;4.57;0.43;;;7.50;99.90;;;;;;5009835;28;20075;-80
2023/02/06 11:34:20;;;;;;;6.65;0.30;;;7.50;99.90;;;;;;5047743;28;20026;-78
2023/02/06 11:36:51;;;;;;;3.40;0.30;;;7.40;99.90;;;;;;5029849;28;20083;-77
2023/02/06 11:39:29;;;;;;;4.65;0.30;;;7.50;99.90;;;;;;5041865;28;20021;-78
2023/02/06 11:42:05;;;;;;;6.78;0.40;;;7.50;99.90;;;;;;5049931;28;20053;-77
2023/02/06 11:44:38;;;;;;;9.82;0.43;;;7.40;99.90;;;;;;5046108;28;20507;-77
2023/02/06 11:47:31;;;;;;;7.75;0.70;;;7.30;99.90;;;;;;5012198;28;20492;-79
2023/02/06 11:50:12;;;;;;;9.68;1.27;;;7.30;99.90;;;;;;5043442;28;20468;-77
2023/02/06 11:52:43;;;;;;;8.90;0.60;;;7.30;99.90;;;;;;5029651;28;20092;-78
2023/02/06 11:55:30;;;;;;;8.15;0.60;;;7.50;99.90;;;;;;5014135;28;20429;-77
2023/02/06 11:58:05;;;;;;;13.63;1.35;;;7.40;99.90;;;;;;5010298;28;20017;-77
2023/02/06 12:00:31;;;;;;;11.93;1.85;;;7.40;99.90;;;;;;5009665;28;20371;-77
2023/02/06 12:02:57;;;;;;;14.40;1.10;;;7.40;99.90;;;;;;5041516;28;20519;-78
2023/02/06 12:05:27;;;;;;;7.78;0.80;;;7.50;99.90;;;;;;5017737;28;20034;-78
2023/02/06 12:08:01;;;;;;;7.68;0.60;;;7.50;99.90;;;;;;5043070;28;20091;-77
2023/02/06 12:10:33;;;;;;;11.20;1.23;;;7.50;99.90;;;;;;5041644;28;20128;-77
2023/02/06 12:13:12;;;;;;;11.50;1.45;;;7.20;99.90;;;;;;5039909;28;20061;-76
2023/02/06 12:15:42;;;;;;;11.80;1.73;;;7.10;99.90;;;;;;5012900;28;20033;-77
2023/02/06 12:18:38;;;;;;;15.43;1.33;;;7.00;99.90;;;;;;5057751;28;20025;-77
2023/02/06 12:21:20;;;;;;;13.82;1.13;;;6.90;99.90;;;;;;5036078;28;20075;-78
2023/02/06 12:23:56;;;;;;;6.90;1.00;;;6.90;99.90;;;;;;5031251;28;20025;-77
2023/02/06 12:26:27;;;;;;;8.32;1.08;;;6.90;99.90;;;;;;5027253;28;20029;-77
2023/02/06 12:28:58;;;;;;;14.55;0.80;;;6.90;99.90;;;;;;5022968;28;20114;-78
2023/02/06 12:31:52;;;;;;;16.88;0.80;;;6.90;99.90;;;;;;5030358;28;20037;-77
2023/02/06 12:34:22;;;;;;;8.27;0.65;;;6.90;99.90;;;;;;5041678;28;20029;-77
2023/02/06 12:37:07;;;;;;;8.00;0.57;;;6.90;99.90;;;;;;5042160;28;20025;-78
2023/02/06 12:39:33;;;;;;;5.88;0.40;;;7.00;99.90;;;;;;5019280;28;20029;-78
2023/02/06 12:42:37;;;;;;;4.38;0.35;;;7.00;99.90;;;;;;5041951;28;20539;-76
2023/02/06 12:45:30;;;;;;;4.97;0.57;;;7.00;99.90;;;;;;5027210;28;20168;-77
2023/02/06 12:48:17;;;;;;;6.57;0.50;;;6.90;99.90;;;;;;5040855;28;20083;-77
2023/02/06 12:50:49;;;;;;;4.82;0.40;;;6.80;99.90;;;;;;5027269;28;20055;-77
2023/02/06 12:53:35;;;;;;;6.20;0.40;;;6.80;99.90;;;;;;5011621;28;20033;-76
2023/02/06 12:56:19;;;;;;;7.40;0.90;;;6.80;99.90;;;;;;5014407;28;20035;-78
2023/02/06 12:58:51;;;;;;;7.28;0.40;;;6.90;99.90;;;;;;5039149;28;20461;-77
2023/02/06 13:01:55;;;;;;;10.95;0.80;;;7.20;99.90;;;;;;5040365;28;20044;-77
2023/02/06 13:04:27;;;;;;;9.48;0.60;;;7.40;99.90;;;;;;5023531;28;20036;-77
2023/02/06 13:07:12;;;;;;;15.93;1.23;;;7.40;99.90;;;;;;5022554;28;20036;-78
2023/02/06 13:09:45;;;;;;;10.30;0.50;;;7.40;99.90;;;;;;5028355;28;20156;-77
2023/02/06 13:12:25;;;;;;;13.40;0.50;;;7.60;99.90;;;;;;5038788;28;20396;-79
2023/02/06 13:14:55;;;;;;;7.20;0.40;;;7.80;99.90;;;;;;5024636;28;20090;-77